Abilene Regional Airport
KABI : now visible

Airfield :











YOU CAN JOIN US ON...

 
LOGIN :

Register | Disclaimer

   EN    FR    IT 

 









Legend :    VFR   Marginal VFR   IFR   Intensive IFR   Very Intensive IFR
Visi :
Ceiling :
>= 8 km
>= 3000ft
5 to 8 km
1000 to 3000 ft
1500m to 5 km
500 to 1000 ft
800 to 1500m
200 to 500 ft
< 800m
< 200 ft
Symbols :   Thunderstorms  Fog  Heavy snow  Heavy precipitations  Wind > 20 kt







- Airport Elevation : 1791 ft


KABI - Abilene Regional

CURRENT METAR :
  • 162252Z 16010KT 10SM CLR 34/12 A2998 RMK AO2 SLP124 T03390122

EXPIRED METARs :
  • 162152Z 13012G16KT 10SM SCT120 35/12 A2999 RMK AO2 SLP126 T03500122
  • 162052Z 15012KT 10SM FEW075 35/13 A3001 RMK AO2 SLP132 T03500133 58023

TAF KABI
Valid from the 16 at 18:00 until the 17 at 18:00 UTC


161720Z 1618/1718 13008KT P6SM SCT070
FM170300 14006KT P6SM SKC
No reported NOTAMs for that airfield.



MET'MAP, your aeronautical weather chart ! - Copyright ORBIFLY December 2007 - Disclaimer

ORBIFLY MET'MAP TEAM :

Programming & Development : Alexandra Zaïnal
Concept & Development : Baudouin d'Aumeries
Co-Development & Prog : Marc-Olivier Méhu
Technical & hardware support : Manuel Goepfert

Contact : metmap@orbifly.com




SOURCES & CREDITS :

   NOAA       Earth
Advisory